sensor_id;sensor_type;location;lat;lon;timestamp;pressure;altitude;pressure_sealevel;temperature;humidity
11621;BME280;5866;49.094;11.900;2022-11-02T00:00:21;96771.72;;;13.87;100.00
11621;BME280;5866;49.094;11.900;2022-11-02T00:02:50;96767.06;;;13.89;100.00
11621;BME280;5866;49.094;11.900;2022-11-02T00:05:18;96773.22;;;14.05;100.00
11621;BME280;5866;49.094;11.900;2022-11-02T00:07:50;96770.06;;;13.94;100.00
11621;BME280;5866;49.094;11.900;2022-11-02T00:10:18;96759.69;;;14.15;100.00
11621;BME280;5866;49.094;11.900;2022-11-02T00:12:46;96768.00;;;14.36;100.00
11621;BME280;5866;49.094;11.900;2022-11-02T00:15:14;96774.31;;;14.43;100.00
11621;BME280;5866;49.094;11.900;2022-11-02T00:17:45;96765.56;;;14.57;100.00
11621;BME280;5866;49.094;11.900;2022-11-02T00:20:16;96780.06;;;14.63;100.00
11621;BME280;5866;49.094;11.900;2022-11-02T00:22:45;96778.19;;;14.71;100.00
11621;BME280;5866;49.094;11.900;2022-11-02T00:25:17;96782.00;;;14.77;100.00
11621;BME280;5866;49.094;11.900;2022-11-02T00:27:46;96784.19;;;14.73;100.00
11621;BME280;5866;49.094;11.900;2022-11-02T00:30:14;96783.88;;;14.68;100.00
11621;BME280;5866;49.094;11.900;2022-11-02T00:32:42;96792.06;;;14.67;100.00
11621;BME280;5866;49.094;11.900;2022-11-02T00:35:09;96795.13;;;14.56;100.00
11621;BME280;5866;49.094;11.900;2022-11-02T00:37:38;96797.03;;;14.15;100.00
11621;BME280;5866;49.094;11.900;2022-11-02T00:40:07;96797.06;;;14.07;100.00
11621;BME280;5866;49.094;11.900;2022-11-02T00:42:34;96814.91;;;13.66;100.00
11621;BME280;5866;49.094;11.900;2022-11-02T00:45:02;96805.75;;;14.01;100.00
11621;BME280;5866;49.094;11.900;2022-11-02T00:47:30;96812.78;;;13.70;100.00
11621;BME280;5866;49.094;11.900;2022-11-02T00:49:57;96800.91;;;13.72;100.00
11621;BME280;5866;49.094;11.900;2022-11-02T00:52:25;96795.06;;;14.09;100.00
11621;BME280;5866;49.094;11.900;2022-11-02T00:54:54;96792.66;;;14.38;100.00
11621;BME280;5866;49.094;11.900;2022-11-02T00:57:21;96790.66;;;14.40;100.00
11621;BME280;5866;49.094;11.900;2022-11-02T00:59:49;96793.50;;;14.39;100.00
11621;BME280;5866;49.094;11.900;2022-11-02T01:02:17;96792.97;;;14.51;100.00
11621;BME280;5866;49.094;11.900;2022-11-02T01:04:44;96790.97;;;14.53;100.00
11621;BME280;5866;49.094;11.900;2022-11-02T01:07:12;96797.00;;;14.23;100.00
11621;BME280;5866;49.094;11.900;2022-11-02T01:09:39;96796.72;;;14.18;100.00
11621;BME280;5866;49.094;11.900;2022-11-02T01:12:08;96803.19;;;14.31;100.00
11621;BME280;5866;49.094;11.900;2022-11-02T01:14:36;96797.66;;;14.41;100.00
11621;BME280;5866;49.094;11.900;2022-11-02T01:17:04;96799.72;;;13.91;100.00
11621;BME280;5866;49.094;11.900;2022-11-02T01:19:31;96789.06;;;14.07;100.00
11621;BME280;5866;49.094;11.900;2022-11-02T01:21:59;96792.84;;;14.37;100.00
11621;BME280;5866;49.094;11.900;2022-11-02T01:24:26;96790.50;;;14.25;100.00
11621;BME280;5866;49.094;11.900;2022-11-02T01:26:54;96783.34;;;14.26;100.00
11621;BME280;5866;49.094;11.900;2022-11-02T01:29:22;96788.69;;;14.26;100.00
11621;BME280;5866;49.094;11.900;2022-11-02T01:31:50;96779.28;;;14.46;100.00
11621;BME280;5866;49.094;11.900;2022-11-02T01:34:19;96773.06;;;14.62;100.00
11621;BME280;5866;49.094;11.900;2022-11-02T01:36:47;96770.03;;;14.65;100.00
11621;BME280;5866;49.094;11.900;2022-11-02T01:39:14;96774.38;;;14.66;100.00
11621;BME280;5866;49.094;11.900;2022-11-02T01:41:42;96781.59;;;13.70;100.00
11621;BME280;5866;49.094;11.900;2022-11-02T01:44:28;96776.25;;;13.70;100.00
11621;BME280;5866;49.094;11.900;2022-11-02T01:47:00;96783.78;;;13.50;100.00
11621;BME280;5866;49.094;11.900;2022-11-02T01:49:30;96786.03;;;13.05;100.00
11621;BME280;5866;49.094;11.900;2022-11-02T01:52:04;96793.59;;;12.84;100.00
11621;BME280;5866;49.094;11.900;2022-11-02T01:54:38;96797.06;;;12.68;100.00
11621;BME280;5866;49.094;11.900;2022-11-02T01:57:09;96788.66;;;12.97;100.00
11621;BME280;5866;49.094;11.900;2022-11-02T01:59:42;96794.97;;;12.13;100.00
11621;BME280;5866;49.094;11.900;2022-11-02T02:02:15;96810.41;;;11.66;100.00
11621;BME280;5866;49.094;11.900;2022-11-02T02:04:48;96811.69;;;11.79;100.00
11621;BME280;5866;49.094;11.900;2022-11-02T02:07:16;96807.84;;;11.39;100.00
11621;BME280;5866;49.094;11.900;2022-11-02T02:09:44;96817.78;;;11.19;100.00
11621;BME280;5866;49.094;11.900;2022-11-02T02:12:16;96816.63;;;11.04;100.00
11621;BME280;5866;49.094;11.900;2022-11-02T02:14:46;96824.09;;;11.18;100.00
11621;BME280;5866;49.094;11.900;2022-11-02T02:17:25;96821.53;;;11.26;100.00
11621;BME280;5866;49.094;11.900;2022-11-02T02:19:58;96816.47;;;11.58;100.00
11621;BME280;5866;49.094;11.900;2022-11-02T02:26:11;96823.84;;;11.29;100.00
11621;BME280;5866;49.094;11.900;2022-11-02T02:28:46;96827.88;;;11.15;100.00
11621;BME280;5866;49.094;11.900;2022-11-02T02:31:18;96832.78;;;10.93;100.00
11621;BME280;5866;49.094;11.900;2022-11-02T02:33:52;96833.31;;;10.96;100.00
11621;BME280;5866;49.094;11.900;2022-11-02T02:36:24;96833.13;;;11.25;100.00
11621;BME280;5866;49.094;11.900;2022-11-02T02:39:00;96821.28;;;11.55;100.00
11621;BME280;5866;49.094;11.900;2022-11-02T02:41:36;96816.81;;;11.73;100.00
11621;BME280;5866;49.094;11.900;2022-11-02T02:44:08;96814.88;;;11.65;100.00
11621;BME280;5866;49.094;11.900;2022-11-02T02:46:40;96819.47;;;11.73;100.00
11621;BME280;5866;49.094;11.900;2022-11-02T02:49:14;96819.44;;;11.38;100.00
11621;BME280;5866;49.094;11.900;2022-11-02T02:51:44;96821.34;;;11.28;100.00
11621;BME280;5866;49.094;11.900;2022-11-02T02:54:16;96829.94;;;11.39;100.00
11621;BME280;5866;49.094;11.900;2022-11-02T02:56:49;96817.88;;;11.62;100.00
11621;BME280;5866;49.094;11.900;2022-11-02T02:59:21;96816.56;;;11.31;100.00
11621;BME280;5866;49.094;11.900;2022-11-02T03:01:49;96808.84;;;11.55;100.00
11621;BME280;5866;49.094;11.900;2022-11-02T03:04:17;96813.22;;;11.64;100.00
11621;BME280;5866;49.094;11.900;2022-11-02T03:06:47;96803.56;;;12.07;100.00
11621;BME280;5866;49.094;11.900;2022-11-02T03:09:21;96806.41;;;11.44;100.00
11621;BME280;5866;49.094;11.900;2022-11-02T03:12:00;96811.16;;;11.58;100.00
11621;BME280;5866;49.094;11.900;2022-11-02T03:14:36;96802.16;;;11.94;100.00
11621;BME280;5866;49.094;11.900;2022-11-02T03:17:13;96809.00;;;12.23;100.00
11621;BME280;5866;49.094;11.900;2022-11-02T03:19:48;96813.50;;;12.30;100.00
11621;BME280;5866;49.094;11.900;2022-11-02T03:22:24;96816.31;;;12.21;100.00
11621;BME280;5866;49.094;11.900;2022-11-02T03:24:57;96812.84;;;12.62;100.00
11621;BME280;5866;49.094;11.900;2022-11-02T03:27:33;96821.28;;;12.24;100.00
11621;BME280;5866;49.094;11.900;2022-11-02T03:30:07;96824.44;;;12.53;100.00
11621;BME280;5866;49.094;11.900;2022-11-02T03:32:40;96824.91;;;12.48;100.00
11621;BME280;5866;49.094;11.900;2022-11-02T03:35:14;96825.84;;;12.31;100.00
11621;BME280;5866;49.094;11.900;2022-11-02T03:37:46;96828.72;;;12.38;100.00
11621;BME280;5866;49.094;11.900;2022-11-02T03:40:19;96836.19;;;12.42;100.00
11621;BME280;5866;49.094;11.900;2022-11-02T03:42:51;96818.22;;;12.78;100.00
11621;BME280;5866;49.094;11.900;2022-11-02T03:45:22;96822.22;;;12.82;100.00
11621;BME280;5866;49.094;11.900;2022-11-02T03:47:54;96812.59;;;12.89;100.00
11621;BME280;5866;49.094;11.900;2022-11-02T03:50:23;96825.53;;;13.26;100.00
11621;BME280;5866;49.094;11.900;2022-11-02T03:52:55;96827.38;;;13.17;100.00
11621;BME280;5866;49.094;11.900;2022-11-02T03:55:28;96821.41;;;12.82;100.00
11621;BME280;5866;49.094;11.900;2022-11-02T03:57:57;96816.91;;;12.82;100.00
11621;BME280;5866;49.094;11.900;2022-11-02T04:00:29;96811.88;;;13.13;100.00
11621;BME280;5866;49.094;11.900;2022-11-02T04:03:00;96812.38;;;13.24;100.00
11621;BME280;5866;49.094;11.900;2022-11-02T04:05:30;96817.03;;;13.30;100.00
11621;BME280;5866;49.094;11.900;2022-11-02T04:07:59;96820.66;;;13.13;100.00
11621;BME280;5866;49.094;11.900;2022-11-02T04:10:44;96828.13;;;12.60;100.00
11621;BME280;5866;49.094;11.900;2022-11-02T04:13:29;96828.09;;;12.52;100.00
11621;BME280;5866;49.094;11.900;2022-11-02T04:16:16;96833.19;;;12.37;100.00
11621;BME280;5866;49.094;11.900;2022-11-02T04:18:48;96829.09;;;12.51;100.00
11621;BME280;5866;49.094;11.900;2022-11-02T04:21:33;96830.03;;;12.75;100.00
11621;BME280;5866;49.094;11.900;2022-11-02T04:24:01;96833.50;;;13.10;100.00
11621;BME280;5866;49.094;11.900;2022-11-02T04:26:57;96839.41;;;12.54;100.00
11621;BME280;5866;49.094;11.900;2022-11-02T04:29:25;96841.38;;;12.44;100.00
11621;BME280;5866;49.094;11.900;2022-11-02T04:31:54;96842.09;;;12.28;100.00
11621;BME280;5866;49.094;11.900;2022-11-02T04:34:21;96844.88;;;12.19;100.00
11621;BME280;5866;49.094;11.900;2022-11-02T04:36:48;96846.06;;;12.50;100.00
11621;BME280;5866;49.094;11.900;2022-11-02T04:39:15;96855.69;;;12.51;100.00
11621;BME280;5866;49.094;11.900;2022-11-02T04:41:42;96853.38;;;12.48;100.00
11621;BME280;5866;49.094;11.900;2022-11-02T04:44:10;96846.53;;;12.45;100.00
11621;BME280;5866;49.094;11.900;2022-11-02T04:46:40;96850.06;;;12.03;100.00
11621;BME280;5866;49.094;11.900;2022-11-02T04:49:10;96846.53;;;12.20;100.00
11621;BME280;5866;49.094;11.900;2022-11-02T04:51:39;96847.59;;;11.66;100.00
11621;BME280;5866;49.094;11.900;2022-11-02T04:54:14;96836.63;;;12.30;100.00
11621;BME280;5866;49.094;11.900;2022-11-02T04:56:41;96832.25;;;12.21;100.00
11621;BME280;5866;49.094;11.900;2022-11-02T04:59:10;96835.81;;;12.29;100.00
11621;BME280;5866;49.094;11.900;2022-11-02T05:01:37;96837.88;;;12.43;100.00
11621;BME280;5866;49.094;11.900;2022-11-02T05:04:05;96827.63;;;12.56;100.00
11621;BME280;5866;49.094;11.900;2022-11-02T05:06:34;96842.25;;;12.52;100.00
11621;BME280;5866;49.094;11.900;2022-11-02T05:09:01;96835.25;;;12.26;100.00
11621;BME280;5866;49.094;11.900;2022-11-02T05:11:29;96831.97;;;11.98;100.00
11621;BME280;5866;49.094;11.900;2022-11-02T05:13:56;96835.41;;;11.73;100.00
11621;BME280;5866;49.094;11.900;2022-11-02T05:16:24;96834.84;;;11.87;100.00
11621;BME280;5866;49.094;11.900;2022-11-02T05:18:51;96831.22;;;12.14;100.00
11621;BME280;5866;49.094;11.900;2022-11-02T05:21:19;96833.56;;;12.17;100.00
11621;BME280;5866;49.094;11.900;2022-11-02T05:23:48;96845.13;;;11.64;100.00
11621;BME280;5866;49.094;11.900;2022-11-02T05:26:15;96849.06;;;11.60;100.00
11621;BME280;5866;49.094;11.900;2022-11-02T05:28:43;96852.56;;;11.43;100.00
11621;BME280;5866;49.094;11.900;2022-11-02T05:31:11;96859.53;;;11.27;100.00
11621;BME280;5866;49.094;11.900;2022-11-02T05:33:38;96854.72;;;11.12;100.00
11621;BME280;5866;49.094;11.900;2022-11-02T05:36:06;96849.50;;;11.38;100.00
11621;BME280;5866;49.094;11.900;2022-11-02T05:38:34;96864.16;;;11.60;100.00
11621;BME280;5866;49.094;11.900;2022-11-02T05:41:03;96863.25;;;11.34;100.00
11621;BME280;5866;49.094;11.900;2022-11-02T05:43:31;96868.94;;;11.21;100.00
11621;BME280;5866;49.094;11.900;2022-11-02T05:45:59;96871.56;;;11.03;100.00
11621;BME280;5866;49.094;11.900;2022-11-02T05:48:30;96881.28;;;10.85;100.00
11621;BME280;5866;49.094;11.900;2022-11-02T05:50:59;96871.22;;;11.34;100.00
11621;BME280;5866;49.094;11.900;2022-11-02T05:53:28;96878.81;;;11.46;100.00
11621;BME280;5866;49.094;11.900;2022-11-02T05:55:58;96893.44;;;11.15;100.00
11621;BME280;5866;49.094;11.900;2022-11-02T05:58:27;96899.94;;;11.03;100.00
11621;BME280;5866;49.094;11.900;2022-11-02T06:00:57;96886.69;;;11.38;100.00
11621;BME280;5866;49.094;11.900;2022-11-02T06:03:25;96895.97;;;11.52;100.00
11621;BME280;5866;49.094;11.900;2022-11-02T06:05:55;96901.13;;;11.53;100.00
11621;BME280;5866;49.094;11.900;2022-11-02T06:08:22;96895.44;;;11.66;100.00
11621;BME280;5866;49.094;11.900;2022-11-02T06:10:50;96901.03;;;11.72;100.00
11621;BME280;5866;49.094;11.900;2022-11-02T06:13:17;96896.44;;;11.82;100.00
11621;BME280;5866;49.094;11.900;2022-11-02T06:15:46;96894.19;;;11.87;100.00
11621;BME280;5866;49.094;11.900;2022-11-02T06:18:14;96894.19;;;11.87;100.00
11621;BME280;5866;49.094;11.900;2022-11-02T06:20:41;96901.44;;;12.03;100.00
11621;BME280;5866;49.094;11.900;2022-11-02T06:23:09;96912.94;;;11.68;100.00
11621;BME280;5866;49.094;11.900;2022-11-02T06:25:39;96917.00;;;11.45;100.00
11621;BME280;5866;49.094;11.900;2022-11-02T06:28:06;96908.28;;;11.35;100.00
11621;BME280;5866;49.094;11.900;2022-11-02T06:30:34;96914.66;;;11.15;100.00
11621;BME280;5866;49.094;11.900;2022-11-02T06:33:03;96923.97;;;11.01;100.00
11621;BME280;5866;49.094;11.900;2022-11-02T06:35:32;96916.81;;;10.75;100.00
11621;BME280;5866;49.094;11.900;2022-11-02T06:38:00;96920.09;;;10.59;100.00
11621;BME280;5866;49.094;11.900;2022-11-02T06:40:27;96915.78;;;10.85;100.00
11621;BME280;5866;49.094;11.900;2022-11-02T06:42:55;96928.00;;;10.22;100.00
11621;BME280;5866;49.094;11.900;2022-11-02T06:45:41;96939.63;;;10.21;100.00
11621;BME280;5866;49.094;11.900;2022-11-02T06:48:10;96940.75;;;10.56;100.00
11621;BME280;5866;49.094;11.900;2022-11-02T06:50:38;96935.22;;;10.49;100.00
11621;BME280;5866;49.094;11.900;2022-11-02T06:53:05;96932.63;;;10.67;100.00
11621;BME280;5866;49.094;11.900;2022-11-02T06:55:33;96942.50;;;10.47;100.00
11621;BME280;5866;49.094;11.900;2022-11-02T06:58:01;96939.81;;;10.57;100.00
11621;BME280;5866;49.094;11.900;2022-11-02T07:00:28;96954.44;;;10.61;100.00
11621;BME280;5866;49.094;11.900;2022-11-02T07:03:00;96965.69;;;10.07;100.00
11621;BME280;5866;49.094;11.900;2022-11-02T07:05:31;96961.66;;;9.65;100.00
11621;BME280;5866;49.094;11.900;2022-11-02T07:07:59;96968.47;;;9.48;100.00
11621;BME280;5866;49.094;11.900;2022-11-02T07:10:27;96969.16;;;9.59;100.00
11621;BME280;5866;49.094;11.900;2022-11-02T07:12:56;96969.59;;;9.74;100.00
11621;BME280;5866;49.094;11.900;2022-11-02T07:15:25;96975.06;;;9.82;100.00
11621;BME280;5866;49.094;11.900;2022-11-02T07:17:53;96982.19;;;10.20;100.00
11621;BME280;5866;49.094;11.900;2022-11-02T07:20:20;96971.75;;;10.65;100.00
11621;BME280;5866;49.094;11.900;2022-11-02T07:22:53;96974.75;;;11.43;100.00
11621;BME280;5866;49.094;11.900;2022-11-02T07:25:21;96973.78;;;11.89;100.00
11621;BME280;5866;49.094;11.900;2022-11-02T07:27:50;96970.00;;;12.17;100.00
11621;BME280;5866;49.094;11.900;2022-11-02T07:30:17;96971.13;;;12.75;100.00
11621;BME280;5866;49.094;11.900;2022-11-02T07:32:45;96961.81;;;13.05;100.00
11621;BME280;5866;49.094;11.900;2022-11-02T07:35:14;96965.75;;;13.85;100.00
11621;BME280;5866;49.094;11.900;2022-11-02T07:37:42;96969.66;;;14.47;100.00
11621;BME280;5866;49.094;11.900;2022-11-02T07:40:12;96965.75;;;14.97;100.00
11621;BME280;5866;49.094;11.900;2022-11-02T07:42:43;96961.34;;;15.59;100.00
11621;BME280;5866;49.094;11.900;2022-11-02T07:45:12;96970.59;;;15.41;100.00
11621;BME280;5866;49.094;11.900;2022-11-02T07:47:41;96965.41;;;15.47;100.00
11621;BME280;5866;49.094;11.900;2022-11-02T07:50:09;96961.38;;;16.05;100.00
11621;BME280;5866;49.094;11.900;2022-11-02T07:52:43;96966.66;;;15.98;100.00
11621;BME280;5866;49.094;11.900;2022-11-02T07:55:13;96968.94;;;16.46;100.00
11621;BME280;5866;49.094;11.900;2022-11-02T07:57:41;96978.66;;;16.47;96.69
11621;BME280;5866;49.094;11.900;2022-11-02T08:00:09;96973.44;;;16.31;96.07
11621;BME280;5866;49.094;11.900;2022-11-02T08:02:37;96971.59;;;17.06;96.65
11621;BME280;5866;49.094;11.900;2022-11-02T08:05:06;96965.75;;;17.32;88.02
11621;BME280;5866;49.094;11.900;2022-11-02T08:07:33;96971.03;;;17.40;88.18
11621;BME280;5866;49.094;11.900;2022-11-02T08:10:01;96972.63;;;18.20;82.77
11621;BME280;5866;49.094;11.900;2022-11-02T08:12:30;96975.69;;;18.17;81.61
11621;BME280;5866;49.094;11.900;2022-11-02T08:14:57;96971.38;;;17.66;81.18
11621;BME280;5866;49.094;11.900;2022-11-02T08:17:32;96969.44;;;17.60;83.67
11621;BME280;5866;49.094;11.900;2022-11-02T08:20:00;96965.94;;;17.95;83.47
11621;BME280;5866;49.094;11.900;2022-11-02T08:22:27;96964.97;;;18.60;78.16
11621;BME280;5866;49.094;11.900;2022-11-02T08:24:55;96964.69;;;19.03;73.80
11621;BME280;5866;49.094;11.900;2022-11-02T08:27:22;96958.31;;;19.11;74.83
11621;BME280;5866;49.094;11.900;2022-11-02T08:29:51;96964.53;;;18.84;70.27
11621;BME280;5866;49.094;11.900;2022-11-02T08:32:19;96952.59;;;19.21;72.87
11621;BME280;5866;49.094;11.900;2022-11-02T08:34:46;96958.38;;;18.62;71.40
11621;BME280;5866;49.094;11.900;2022-11-02T08:37:14;96964.78;;;17.83;73.92
11621;BME280;5866;49.094;11.900;2022-11-02T08:39:41;96970.94;;;17.63;77.07
11621;BME280;5866;49.094;11.900;2022-11-02T08:42:09;96963.44;;;17.43;79.15
11621;BME280;5866;49.094;11.900;2022-11-02T08:44:36;96965.72;;;17.76;78.62
11621;BME280;5866;49.094;11.900;2022-11-02T08:47:09;96967.13;;;18.07;75.87
11621;BME280;5866;49.094;11.900;2022-11-02T08:49:37;96966.13;;;17.94;77.44
11621;BME280;5866;49.094;11.900;2022-11-02T08:52:04;96965.88;;;18.46;74.28
11621;BME280;5866;49.094;11.900;2022-11-02T08:54:32;96969.88;;;19.05;71.65
11621;BME280;5866;49.094;11.900;2022-11-02T08:56:59;96970.97;;;18.83;69.99
11621;BME280;5866;49.094;11.900;2022-11-02T08:59:27;96964.72;;;19.38;70.49
11621;BME280;5866;49.094;11.900;2022-11-02T09:01:54;96967.81;;;19.82;66.12
11621;BME280;5866;49.094;11.900;2022-11-02T09:04:24;96968.06;;;19.12;68.56
11621;BME280;5866;49.094;11.900;2022-11-02T09:06:51;96964.41;;;19.54;68.71
11621;BME280;5866;49.094;11.900;2022-11-02T09:09:19;96961.44;;;19.42;64.64
11621;BME280;5866;49.094;11.900;2022-11-02T09:11:48;96959.28;;;20.26;63.64
11621;BME280;5866;49.094;11.900;2022-11-02T09:14:16;96960.41;;;19.91;61.72
11621;BME280;5866;49.094;11.900;2022-11-02T09:16:44;96963.94;;;19.50;62.95
11621;BME280;5866;49.094;11.900;2022-11-02T09:19:11;96965.25;;;18.29;67.03
11621;BME280;5866;49.094;11.900;2022-11-02T09:21:40;96971.88;;;18.05;74.37
11621;BME280;5866;49.094;11.900;2022-11-02T09:24:08;96969.63;;;16.86;79.14
11621;BME280;5866;49.094;11.900;2022-11-02T09:26:36;96965.00;;;16.80;79.77
11621;BME280;5866;49.094;11.900;2022-11-02T09:29:03;96960.41;;;17.17;80.39
11621;BME280;5866;49.094;11.900;2022-11-02T09:31:31;96957.31;;;17.64;78.25
11621;BME280;5866;49.094;11.900;2022-11-02T09:33:59;96966.03;;;18.23;75.47
11621;BME280;5866;49.094;11.900;2022-11-02T09:36:26;96971.03;;;17.69;75.97
11621;BME280;5866;49.094;11.900;2022-11-02T09:38:55;96968.47;;;17.97;75.04
11621;BME280;5866;49.094;11.900;2022-11-02T09:41:28;96975.22;;;18.14;78.89
11621;BME280;5866;49.094;11.900;2022-11-02T09:44:02;96965.84;;;18.03;73.20
11621;BME280;5866;49.094;11.900;2022-11-02T09:46:33;96973.88;;;16.95;74.92
11621;BME280;5866;49.094;11.900;2022-11-02T09:49:10;96972.78;;;17.33;80.90
11621;BME280;5866;49.094;11.900;2022-11-02T09:51:41;96972.53;;;17.28;80.15
11621;BME280;5866;49.094;11.900;2022-11-02T09:54:15;96975.50;;;17.83;79.02
11621;BME280;5866;49.094;11.900;2022-11-02T09:56:45;96978.56;;;18.16;73.88
11621;BME280;5866;49.094;11.900;2022-11-02T09:59:14;96969.38;;;17.89;74.95
11621;BME280;5866;49.094;11.900;2022-11-02T10:01:52;96970.19;;;17.25;78.07
11621;BME280;5866;49.094;11.900;2022-11-02T10:04:33;96979.56;;;16.62;85.51
11621;BME280;5866;49.094;11.900;2022-11-02T10:07:08;96970.91;;;16.75;86.00
11621;BME280;5866;49.094;11.900;2022-11-02T10:09:48;96971.44;;;17.87;81.38
11621;BME280;5866;49.094;11.900;2022-11-02T10:12:23;96974.47;;;18.56;73.35
11621;BME280;5866;49.094;11.900;2022-11-02T10:14:58;96978.22;;;18.61;67.75
11621;BME280;5866;49.094;11.900;2022-11-02T10:17:29;96972.69;;;17.56;72.58
11621;BME280;5866;49.094;11.900;2022-11-02T10:20:04;96988.28;;;16.79;82.68
11621;BME280;5866;49.094;11.900;2022-11-02T10:22:37;96985.00;;;17.50;78.39
11621;BME280;5866;49.094;11.900;2022-11-02T10:25:13;96996.47;;;17.44;78.70
11621;BME280;5866;49.094;11.900;2022-11-02T10:27:44;96994.59;;;15.57;86.24
11621;BME280;5866;49.094;11.900;2022-11-02T10:30:17;97008.34;;;14.67;100.00
11621;BME280;5866;49.094;11.900;2022-11-02T10:32:49;97002.50;;;14.39;100.00
11621;BME280;5866;49.094;11.900;2022-11-02T10:35:19;97010.19;;;14.50;100.00
11621;BME280;5866;49.094;11.900;2022-11-02T10:38:18;97006.59;;;13.35;100.00
11621;BME280;5866;49.094;11.900;2022-11-02T10:41:06;97015.50;;;12.67;100.00
11621;BME280;5866;49.094;11.900;2022-11-02T10:43:46;97035.06;;;12.40;100.00
11621;BME280;5866;49.094;11.900;2022-11-02T10:46:31;97035.44;;;12.63;100.00
11621;BME280;5866;49.094;11.900;2022-11-02T10:49:08;97031.88;;;12.37;100.00
11621;BME280;5866;49.094;11.900;2022-11-02T10:51:40;97031.88;;;12.80;100.00
11621;BME280;5866;49.094;11.900;2022-11-02T10:54:11;97029.19;;;13.23;100.00
11621;BME280;5866;49.094;11.900;2022-11-02T10:56:46;97015.53;;;13.26;100.00
11621;BME280;5866;49.094;11.900;2022-11-02T10:59:17;97016.09;;;13.80;100.00
11621;BME280;5866;49.094;11.900;2022-11-02T11:01:48;97021.56;;;13.78;100.00
11621;BME280;5866;49.094;11.900;2022-11-02T11:04:30;97018.47;;;13.49;100.00
11621;BME280;5866;49.094;11.900;2022-11-02T11:07:03;97020.16;;;12.99;100.00
11621;BME280;5866;49.094;11.900;2022-11-02T11:09:37;97018.41;;;13.07;100.00
11621;BME280;5866;49.094;11.900;2022-11-02T11:12:15;97009.97;;;13.45;100.00
11621;BME280;5866;49.094;11.900;2022-11-02T11:14:48;97003.41;;;13.74;100.00
11621;BME280;5866;49.094;11.900;2022-11-02T11:17:38;97005.81;;;14.09;100.00
11621;BME280;5866;49.094;11.900;2022-11-02T11:20:31;97006.72;;;13.68;100.00
11621;BME280;5866;49.094;11.900;2022-11-02T11:23:07;97005.03;;;13.67;100.00
11621;BME280;5866;49.094;11.900;2022-11-02T11:25:35;96997.41;;;13.80;100.00
11621;BME280;5866;49.094;11.900;2022-11-02T11:28:21;97001.75;;;13.81;100.00
11621;BME280;5866;49.094;11.900;2022-11-02T11:31:01;96995.44;;;14.06;100.00
11621;BME280;5866;49.094;11.900;2022-11-02T11:33:30;96983.13;;;14.05;100.00
11621;BME280;5866;49.094;11.900;2022-11-02T11:35:58;96999.28;;;13.37;100.00
11621;BME280;5866;49.094;11.900;2022-11-02T11:38:26;96995.22;;;13.25;100.00
11621;BME280;5866;49.094;11.900;2022-11-02T11:40:57;96982.53;;;13.53;100.00
11621;BME280;5866;49.094;11.900;2022-11-02T11:43:27;96981.06;;;13.75;100.00
11621;BME280;5866;49.094;11.900;2022-11-02T11:45:57;96982.88;;;13.74;100.00
11621;BME280;5866;49.094;11.900;2022-11-02T11:48:34;96986.75;;;13.88;100.00
11621;BME280;5866;49.094;11.900;2022-11-02T11:51:03;96983.44;;;14.10;100.00
11621;BME280;5866;49.094;11.900;2022-11-02T11:53:37;96982.16;;;14.54;100.00
11621;BME280;5866;49.094;11.900;2022-11-02T11:56:08;96973.13;;;14.79;100.00
11621;BME280;5866;49.094;11.900;2022-11-02T11:58:52;96963.69;;;15.16;100.00
11621;BME280;5866;49.094;11.900;2022-11-02T12:01:19;96978.31;;;15.28;100.00
11621;BME280;5866;49.094;11.900;2022-11-02T12:03:50;96969.28;;;14.82;100.00
11621;BME280;5866;49.094;11.900;2022-11-02T12:06:24;96971.56;;;15.01;100.00
11621;BME280;5866;49.094;11.900;2022-11-02T12:08:58;96964.59;;;15.47;100.00
11621;BME280;5866;49.094;11.900;2022-11-02T12:11:39;96967.00;;;15.95;91.86
11621;BME280;5866;49.094;11.900;2022-11-02T12:14:21;96968.47;;;15.75;92.96
11621;BME280;5866;49.094;11.900;2022-11-02T12:17:19;96960.44;;;16.43;88.58
11621;BME280;5866;49.094;11.900;2022-11-02T12:19:58;96969.47;;;15.74;88.88
11621;BME280;5866;49.094;11.900;2022-11-02T12:22:35;96975.13;;;14.77;98.53
11621;BME280;5866;49.094;11.900;2022-11-02T12:25:19;96968.00;;;15.25;97.93
11621;BME280;5866;49.094;11.900;2022-11-02T12:27:56;96971.44;;;15.41;95.23
11621;BME280;5866;49.094;11.900;2022-11-02T12:30:34;96974.91;;;15.03;95.24
11621;BME280;5866;49.094;11.900;2022-11-02T12:33:16;96976.50;;;14.57;100.00
11621;BME280;5866;49.094;11.900;2022-11-02T12:35:52;96970.78;;;14.68;100.00
11621;BME280;5866;49.094;11.900;2022-11-02T12:38:35;96981.16;;;14.39;100.00
11621;BME280;5866;49.094;11.900;2022-11-02T12:41:07;96972.78;;;14.82;99.59
11621;BME280;5866;49.094;11.900;2022-11-02T12:43:40;96978.78;;;14.12;100.00
11621;BME280;5866;49.094;11.900;2022-11-02T12:46:21;96976.94;;;14.04;100.00
11621;BME280;5866;49.094;11.900;2022-11-02T12:49:26;96979.31;;;14.64;100.00
11621;BME280;5866;49.094;11.900;2022-11-02T12:52:10;96976.13;;;14.68;100.00
11621;BME280;5866;49.094;11.900;2022-11-02T12:54:44;96971.75;;;14.99;97.69
11621;BME280;5866;49.094;11.900;2022-11-02T12:57:15;96962.00;;;15.23;94.98
11621;BME280;5866;49.094;11.900;2022-11-02T12:59:45;96964.25;;;15.50;90.21
11621;BME280;5866;49.094;11.900;2022-11-02T13:02:17;96967.41;;;15.53;94.91
11621;BME280;5866;49.094;11.900;2022-11-02T13:04:50;96965.00;;;15.58;91.89
11621;BME280;5866;49.094;11.900;2022-11-02T13:07:30;96965.34;;;16.17;86.43
11621;BME280;5866;49.094;11.900;2022-11-02T13:10:02;96956.72;;;16.52;81.82
11621;BME280;5866;49.094;11.900;2022-11-02T13:12:32;96955.53;;;16.46;80.39
11621;BME280;5866;49.094;11.900;2022-11-02T13:15:03;96964.13;;;16.64;79.33
11621;BME280;5866;49.094;11.900;2022-11-02T13:17:42;96957.34;;;17.06;78.99